Vernal, Utah
Current Conditions -  °F | °C
As of 9:53 AM on Friday 31 Oct 2014 (Local Time) from KVEL Reporting Station
Clear Clear  
Wind Chill: 46°   Ceiling: Unl
Heat Index: 46°   Visibility: 10mi
Dew Point: 29°   Wind: 0mph
Humidity: 51%   Direction: NA
Pressure: 30.21"   Gusts: NA
Location:  40.46°N, 109.52°W
Report Text: KVEL 311553Z AUTO 00000KT 10SM CLR 08/M02 A3021 RMK AO2 SLP215 T00781017
Loading
Personal Weather Stations






























Interactive Weather Map
Tropical Storm Tracking
New forecast layout! Learn more

10-Day Weather Forecast

Advertisements
Track Severe Weather on mobile